createdAt,value
2023-04-06T00:00:15.814Z,25.00
2023-04-06T00:01:15.796Z,25.00
2023-04-06T00:02:15.829Z,25.00
2023-04-06T00:03:15.912Z,0.00
2023-04-06T00:04:15.765Z,0.00
2023-04-06T00:05:15.774Z,0.00
2023-04-06T00:06:17.154Z,0.00
2023-04-06T00:07:15.986Z,0.00
2023-04-06T00:08:15.979Z,0.00
2023-04-06T00:09:15.985Z,0.00
2023-04-06T00:10:15.993Z,8.77
2023-04-06T00:11:15.996Z,25.28
2023-04-06T00:12:16.035Z,25.00
2023-04-06T00:13:16.041Z,27.50
2023-04-06T00:14:16.029Z,25.00
2023-04-06T00:15:16.046Z,25.49
2023-04-06T00:16:16.080Z,26.39
2023-04-06T00:17:16.081Z,25.30
2023-04-06T00:18:16.082Z,27.40
2023-04-06T00:19:16.239Z,25.13
2023-04-06T00:20:16.112Z,25.57
2023-04-06T00:21:16.141Z,27.68
2023-04-06T00:22:16.139Z,25.28
2023-04-06T00:23:16.143Z,25.83
2023-04-06T00:24:16.153Z,27.28
2023-04-06T00:25:16.174Z,25.76
2023-04-06T00:26:16.161Z,25.00
2023-04-06T00:27:16.177Z,25.00
2023-04-06T00:28:16.190Z,25.63
2023-04-06T00:29:16.227Z,25.96
2023-04-06T00:30:16.215Z,25.04
2023-04-06T00:31:16.229Z,25.62
2023-04-06T00:32:16.366Z,25.18
2023-04-06T00:33:16.259Z,25.95
2023-04-06T00:34:16.284Z,26.91
2023-04-06T00:35:16.263Z,25.53
2023-04-06T00:36:16.316Z,28.52
2023-04-06T00:37:16.282Z,25.30
2023-04-06T00:38:16.311Z,27.46
2023-04-06T00:39:17.947Z,27.25
2023-04-06T00:40:16.312Z,25.81
2023-04-06T00:41:16.304Z,25.71
2023-04-06T00:42:16.676Z,28.03
2023-04-06T00:43:16.297Z,25.77
2023-04-06T00:44:16.274Z,26.17
2023-04-06T00:45:16.294Z,25.00
2023-04-06T00:46:16.371Z,26.73
2023-04-06T00:47:16.249Z,27.20
2023-04-06T00:48:16.265Z,28.60
2023-04-06T00:49:16.249Z,26.92
2023-04-06T00:50:16.231Z,25.43
2023-04-06T00:51:16.233Z,28.73
2023-04-06T00:52:16.213Z,26.34
2023-04-06T00:53:16.217Z,26.83
2023-04-06T00:54:16.218Z,25.42
2023-04-06T00:55:16.211Z,27.48
2023-04-06T00:56:16.217Z,30.21
2023-04-06T00:57:16.222Z,26.79
2023-04-06T00:58:16.237Z,27.67
2023-04-06T00:59:16.302Z,25.14
2023-04-06T01:00:16.218Z,28.43
2023-04-06T01:01:16.260Z,26.21
2023-04-06T01:02:16.235Z,28.56
2023-04-06T01:03:16.217Z,28.32
2023-04-06T01:04:16.199Z,27.09
2023-04-06T01:05:16.241Z,25.29
2023-04-06T01:06:16.191Z,27.63
2023-04-06T01:07:16.178Z,26.52
2023-04-06T01:08:16.218Z,25.60
2023-04-06T01:09:16.181Z,25.30
2023-04-06T01:10:16.179Z,27.37
2023-04-06T01:11:16.162Z,28.30
2023-04-06T01:12:16.162Z,26.87
2023-04-06T01:13:16.144Z,27.51
2023-04-06T01:14:16.147Z,27.52
2023-04-06T01:15:16.144Z,25.29
2023-04-06T01:16:16.206Z,26.48
2023-04-06T01:17:16.164Z,26.32
2023-04-06T01:18:16.123Z,26.22
2023-04-06T01:19:16.120Z,26.27
2023-04-06T01:20:16.112Z,25.95
2023-04-06T01:21:16.116Z,26.74
2023-04-06T01:22:16.108Z,26.22
2023-04-06T01:23:16.092Z,27.95
2023-04-06T01:24:16.082Z,26.02
2023-04-06T01:25:16.056Z,26.10
2023-04-06T01:26:16.047Z,25.93
2023-04-06T01:27:16.036Z,25.44
2023-04-06T01:28:16.028Z,27.47
2023-04-06T01:29:16.026Z,28.09
2023-04-06T01:30:16.021Z,30.20
2023-04-06T01:31:16.049Z,28.53
2023-04-06T01:32:16.008Z,28.75
2023-04-06T01:33:16.026Z,26.68
2023-04-06T01:34:15.983Z,26.83
2023-04-06T01:35:15.990Z,25.95
2023-04-06T01:36:15.969Z,28.46
2023-04-06T01:37:15.954Z,27.68
2023-04-06T01:38:15.943Z,27.79
2023-04-06T01:39:15.943Z,26.87
2023-04-06T01:40:15.945Z,25.25
2023-04-06T01:41:15.922Z,26.61
2023-04-06T01:42:15.926Z,26.73
2023-04-06T01:43:15.905Z,28.11
2023-04-06T01:44:15.901Z,27.32
2023-04-06T01:45:15.906Z,29.28
2023-04-06T01:46:15.909Z,25.96
2023-04-06T01:47:15.889Z,27.78
2023-04-06T01:48:15.882Z,30.29
2023-04-06T01:49:15.896Z,30.86
2023-04-06T01:50:15.867Z,28.80
2023-04-06T01:51:15.880Z,27.50
2023-04-06T01:52:15.853Z,26.85
2023-04-06T01:53:15.845Z,25.00
2023-04-06T01:54:15.851Z,28.20
2023-04-06T01:55:15.840Z,28.64
2023-04-06T01:56:15.835Z,28.17
2023-04-06T01:57:15.845Z,26.93
2023-04-06T01:58:15.855Z,27.97
2023-04-06T01:59:15.884Z,28.94
2023-04-06T02:00:15.868Z,29.35
2023-04-06T02:01:15.882Z,29.64
2023-04-06T02:02:15.884Z,27.57
2023-04-06T02:03:15.985Z,26.83
2023-04-06T02:04:15.885Z,29.72
2023-04-06T02:05:15.927Z,28.12
2023-04-06T02:06:15.903Z,26.94
2023-04-06T02:07:15.901Z,29.42
2023-04-06T02:08:15.907Z,28.57
2023-04-06T02:09:15.900Z,26.02
2023-04-06T02:10:15.910Z,27.27
2023-04-06T02:11:15.921Z,27.90
2023-04-06T02:12:15.930Z,27.41
2023-04-06T02:13:15.927Z,28.62
2023-04-06T02:14:15.933Z,27.35
2023-04-06T02:15:15.938Z,27.47
2023-04-06T02:16:15.975Z,26.93
2023-04-06T02:17:15.948Z,26.32
2023-04-06T02:18:15.944Z,28.05
2023-04-06T02:19:15.952Z,25.86
2023-04-06T02:20:15.953Z,26.51
2023-04-06T02:21:15.991Z,30.76
2023-04-06T02:22:15.956Z,31.79
2023-04-06T02:23:15.958Z,28.51
2023-04-06T02:24:15.967Z,27.29
2023-04-06T02:25:15.958Z,27.22
2023-04-06T02:26:15.975Z,29.83
2023-04-06T02:27:15.998Z,29.17
2023-04-06T02:28:15.988Z,25.06
2023-04-06T02:29:16.008Z,26.65
2023-04-06T02:30:15.997Z,27.32
2023-04-06T02:31:16.084Z,26.45
2023-04-06T02:32:16.009Z,28.91
2023-04-06T02:33:16.021Z,27.50
2023-04-06T02:34:16.012Z,31.63
2023-04-06T02:35:16.020Z,27.94
2023-04-06T02:36:16.026Z,28.58
2023-04-06T02:37:16.095Z,30.66
2023-04-06T02:38:16.058Z,27.65
2023-04-06T02:39:16.056Z,27.09
2023-04-06T02:40:16.063Z,28.18
2023-04-06T02:41:16.068Z,30.28
2023-04-06T02:42:16.277Z,26.92
2023-04-06T02:43:16.150Z,30.24
2023-04-06T02:44:16.100Z,27.60
2023-04-06T02:45:16.108Z,29.49
2023-04-06T02:46:16.165Z,29.91
2023-04-06T02:47:16.148Z,28.09
2023-04-06T02:48:16.150Z,30.19
2023-04-06T02:49:16.160Z,30.93
2023-04-06T02:50:16.173Z,27.25
2023-04-06T02:51:16.194Z,29.10
2023-04-06T02:52:16.202Z,28.80
2023-04-06T02:53:16.229Z,27.19
2023-04-06T02:54:16.224Z,30.45
2023-04-06T02:55:16.230Z,31.79
2023-04-06T02:56:16.242Z,28.94
2023-04-06T02:57:16.253Z,30.15
2023-04-06T02:58:16.290Z,26.43
2023-04-06T02:59:16.351Z,28.93
2023-04-06T03:00:16.279Z,28.45
2023-04-06T03:01:16.377Z,27.63
2023-04-06T03:02:16.358Z,26.92
2023-04-06T03:03:16.427Z,28.25
2023-04-06T03:04:16.345Z,27.95
2023-04-06T03:05:16.361Z,28.43
2023-04-06T03:06:16.346Z,26.62
2023-04-06T03:07:16.353Z,28.34
2023-04-06T03:08:16.394Z,28.86
2023-04-06T03:09:16.384Z,31.30
2023-04-06T03:10:16.358Z,27.59
2023-04-06T03:11:16.369Z,25.92
2023-04-06T03:12:16.365Z,26.93
2023-04-06T03:13:16.379Z,28.21
2023-04-06T03:14:16.379Z,26.48
2023-04-06T03:15:16.384Z,26.78
2023-04-06T03:16:16.426Z,29.83
2023-04-06T03:17:16.384Z,28.02
2023-04-06T03:18:16.419Z,27.92
2023-04-06T03:19:16.399Z,28.85
2023-04-06T03:20:16.426Z,26.84
2023-04-06T03:21:16.425Z,25.24
2023-04-06T03:22:16.423Z,27.39
2023-04-06T03:23:16.434Z,28.04
2023-04-06T03:24:16.439Z,27.49
2023-04-06T03:25:16.477Z,28.40
2023-04-06T03:26:16.447Z,29.40
2023-04-06T03:27:16.452Z,28.10
2023-04-06T03:28:16.452Z,30.83
2023-04-06T03:29:16.444Z,27.41
2023-04-06T03:30:16.463Z,26.94
2023-04-06T03:31:16.537Z,28.48
2023-04-06T03:32:16.457Z,25.94
2023-04-06T03:33:16.457Z,31.20
2023-04-06T03:34:16.460Z,28.76
2023-04-06T03:35:16.554Z,28.65
2023-04-06T03:36:16.464Z,29.32
2023-04-06T03:37:16.463Z,27.11
2023-04-06T03:38:16.482Z,28.62
2023-04-06T03:39:16.474Z,28.81
2023-04-06T03:40:16.483Z,28.05
2023-04-06T03:41:16.505Z,31.95
2023-04-06T03:42:16.491Z,31.18
2023-04-06T03:43:16.516Z,30.31
2023-04-06T03:44:16.508Z,29.61
2023-04-06T03:45:16.497Z,30.11
2023-04-06T03:46:16.559Z,30.06
2023-04-06T03:47:16.501Z,29.15
2023-04-06T03:48:16.506Z,29.07
2023-04-06T03:49:16.522Z,29.53
2023-04-06T03:50:16.524Z,27.88
2023-04-06T03:51:16.526Z,30.14
2023-04-06T03:52:16.539Z,29.25
2023-04-06T03:53:16.557Z,28.44
2023-04-06T03:54:16.576Z,29.17
2023-04-06T03:55:16.602Z,28.06
2023-04-06T03:56:16.610Z,28.45
2023-04-06T03:57:16.639Z,27.70
2023-04-06T03:58:16.638Z,28.00
2023-04-06T03:59:16.701Z,27.13
2023-04-06T04:00:16.670Z,28.81
2023-04-06T04:01:16.675Z,28.64
2023-04-06T04:02:16.734Z,28.49
2023-04-06T04:03:16.798Z,29.94
2023-04-06T04:04:16.716Z,29.11
2023-04-06T04:05:16.768Z,27.76
2023-04-06T04:06:16.737Z,27.84
2023-04-06T04:07:16.760Z,27.61
2023-04-06T04:08:16.769Z,29.47
2023-04-06T04:09:16.785Z,29.12
2023-04-06T04:10:16.807Z,29.41
2023-04-06T04:11:16.908Z,30.73
2023-04-06T04:12:16.838Z,29.26
2023-04-06T04:13:16.870Z,28.51
2023-04-06T04:14:16.859Z,29.47
2023-04-06T04:15:16.883Z,32.19
2023-04-06T04:16:16.920Z,30.83
2023-04-06T04:17:16.911Z,30.44
2023-04-06T04:18:16.922Z,29.42
2023-04-06T04:19:16.936Z,32.79
2023-04-06T04:20:16.962Z,28.41
2023-04-06T04:21:16.970Z,29.95
2023-04-06T04:22:17.005Z,29.60
2023-04-06T04:23:16.995Z,29.37
2023-04-06T04:24:17.029Z,29.10
2023-04-06T04:25:17.023Z,31.22
2023-04-06T04:26:17.041Z,29.59
2023-04-06T04:27:17.045Z,27.97
2023-04-06T04:28:17.058Z,28.90
2023-04-06T04:29:17.132Z,30.18
2023-04-06T04:30:17.096Z,30.84
2023-04-06T04:31:17.110Z,29.03
2023-04-06T04:32:17.178Z,30.16
2023-04-06T04:33:17.140Z,30.08
2023-04-06T04:34:17.156Z,30.04
2023-04-06T04:35:17.162Z,29.06
2023-04-06T04:36:17.180Z,29.67
2023-04-06T04:37:17.197Z,27.18
2023-04-06T04:38:17.217Z,28.36
2023-04-06T04:39:17.224Z,28.76
2023-04-06T04:40:17.242Z,27.62
2023-04-06T04:41:17.264Z,29.15
2023-04-06T04:42:17.270Z,28.62
2023-04-06T04:43:17.292Z,29.54
2023-04-06T04:44:17.303Z,28.52
2023-04-06T04:45:17.354Z,29.34
2023-04-06T04:46:17.386Z,30.79
2023-04-06T04:47:17.363Z,27.47
2023-04-06T04:48:17.376Z,28.82
2023-04-06T04:49:17.393Z,27.20
2023-04-06T04:50:17.412Z,27.74
2023-04-06T04:51:17.431Z,27.61
2023-04-06T04:52:17.444Z,29.30
2023-04-06T04:53:17.464Z,27.70
2023-04-06T04:54:17.484Z,27.43
2023-04-06T04:55:17.508Z,27.30
2023-04-06T04:56:17.532Z,27.49
2023-04-06T04:57:17.554Z,30.34
2023-04-06T04:58:17.578Z,27.85
2023-04-06T04:59:17.680Z,27.62
2023-04-06T05:00:17.609Z,30.06
2023-04-06T05:01:17.707Z,26.33
2023-04-06T05:02:17.718Z,28.05
2023-04-06T05:03:17.736Z,29.02
2023-04-06T05:04:17.665Z,28.79
2023-04-06T05:05:17.687Z,27.97
2023-04-06T05:06:17.701Z,29.00
2023-04-06T05:07:17.725Z,27.58
2023-04-06T05:08:17.737Z,26.75
2023-04-06T05:09:17.755Z,26.24
2023-04-06T05:10:17.781Z,27.58
2023-04-06T05:11:17.797Z,28.28
2023-04-06T05:12:17.820Z,30.15
2023-04-06T05:13:17.839Z,29.13
2023-04-06T05:14:17.850Z,32.38
2023-04-06T05:15:17.883Z,29.58
2023-04-06T05:16:18.054Z,29.26
2023-04-06T05:17:17.961Z,28.27
2023-04-06T05:18:17.935Z,28.80
2023-04-06T05:19:17.951Z,26.85
2023-04-06T05:20:17.975Z,30.55
2023-04-06T05:21:18.001Z,27.27
2023-04-06T05:22:18.030Z,27.80
2023-04-06T05:23:18.054Z,29.71
2023-04-06T05:24:18.076Z,30.05
2023-04-06T05:25:18.098Z,29.04
2023-04-06T05:26:18.125Z,27.57
2023-04-06T05:27:18.143Z,28.29
2023-04-06T05:28:18.164Z,27.97
2023-04-06T05:29:18.171Z,28.87
2023-04-06T05:30:18.193Z,29.11
2023-04-06T05:31:18.327Z,27.69
2023-04-06T05:32:18.230Z,27.69
2023-04-06T05:33:18.298Z,29.22
2023-04-06T05:34:18.275Z,29.07
2023-04-06T05:35:18.286Z,27.94
2023-04-06T05:36:18.303Z,30.65
2023-04-06T05:37:19.294Z,26.53
2023-04-06T05:38:18.350Z,29.98
2023-04-06T05:39:18.352Z,28.80
2023-04-06T05:40:18.356Z,26.65
2023-04-06T05:41:18.380Z,27.40
2023-04-06T05:42:18.390Z,29.08
2023-04-06T05:43:18.915Z,26.45
2023-04-06T05:44:18.452Z,30.54
2023-04-06T05:45:18.481Z,31.60
2023-04-06T05:46:18.558Z,28.91
2023-04-06T05:47:18.496Z,29.61
2023-04-06T05:48:18.521Z,29.82
2023-04-06T05:49:18.559Z,27.99
2023-04-06T05:50:18.551Z,28.24
2023-04-06T05:51:18.564Z,30.29
2023-04-06T05:52:18.587Z,27.89
2023-04-06T05:53:18.605Z,30.58
2023-04-06T05:54:18.622Z,29.52
2023-04-06T05:55:18.643Z,30.16
2023-04-06T05:56:18.737Z,29.83
2023-04-06T05:57:18.691Z,28.83
2023-04-06T05:58:18.701Z,30.65
2023-04-06T05:59:18.734Z,28.37
2023-04-06T06:00:18.708Z,30.67
2023-04-06T06:01:18.717Z,29.35
2023-04-06T06:02:18.771Z,29.36
2023-04-06T06:03:18.790Z,28.15
2023-04-06T06:04:18.759Z,27.58
2023-04-06T06:05:18.848Z,26.99
2023-04-06T06:06:18.783Z,28.20
2023-04-06T06:07:18.792Z,26.94
2023-04-06T06:08:18.808Z,28.62
2023-04-06T06:09:18.805Z,26.55
2023-04-06T06:10:18.806Z,28.18
2023-04-06T06:11:18.825Z,29.24
2023-04-06T06:12:18.818Z,27.88
2023-04-06T06:13:18.826Z,30.97
2023-04-06T06:14:18.867Z,26.50
2023-04-06T06:15:18.844Z,30.58
2023-04-06T06:16:18.906Z,31.20
2023-04-06T06:17:18.857Z,27.74
2023-04-06T06:18:18.871Z,28.25
2023-04-06T06:19:18.896Z,27.67
2023-04-06T06:20:18.899Z,28.37
2023-04-06T06:21:18.941Z,30.16
2023-04-06T06:22:18.935Z,27.36
2023-04-06T06:23:18.956Z,31.41
2023-04-06T06:24:19.231Z,30.37
2023-04-06T06:25:18.981Z,29.75
2023-04-06T06:26:19.013Z,28.56
2023-04-06T06:27:19.021Z,29.35
2023-04-06T06:28:19.039Z,29.68
2023-04-06T06:29:19.040Z,27.29
2023-04-06T06:30:20.434Z,27.34
2023-04-06T06:31:19.053Z,27.58
2023-04-06T06:32:19.040Z,28.15
2023-04-06T06:33:19.040Z,28.66
2023-04-06T06:34:19.028Z,29.00
2023-04-06T06:35:19.036Z,29.76
2023-04-06T06:36:19.025Z,29.11
2023-04-06T06:37:19.051Z,31.11
2023-04-06T06:38:20.062Z,30.00
2023-04-06T06:39:19.020Z,30.13
2023-04-06T06:40:19.106Z,30.49
2023-04-06T06:41:19.000Z,30.83
2023-04-06T06:42:19.000Z,30.36
2023-04-06T06:43:18.996Z,32.34
2023-04-06T06:44:18.989Z,33.02
2023-04-06T06:45:18.985Z,31.21
2023-04-06T06:46:18.986Z,31.33
2023-04-06T06:47:19.038Z,30.67
2023-04-06T06:48:18.961Z,31.38
2023-04-06T06:49:18.981Z,33.57
2023-04-06T06:50:18.966Z,33.76
2023-04-06T06:51:18.965Z,30.30
2023-04-06T06:52:18.968Z,32.86
2023-04-06T06:53:18.982Z,32.49
2023-04-06T06:54:18.944Z,33.16
2023-04-06T06:55:19.193Z,33.58
2023-04-06T06:56:18.929Z,32.87
2023-04-06T06:57:18.925Z,33.19
2023-04-06T06:58:18.917Z,31.79
2023-04-06T06:59:18.947Z,30.74
2023-04-06T07:00:18.920Z,30.53
2023-04-06T07:01:18.930Z,30.72
2023-04-06T07:02:18.952Z,30.53
2023-04-06T07:03:18.905Z,29.25
2023-04-06T07:04:18.916Z,30.89
2023-04-06T07:05:27.710Z,30.82
2023-04-06T07:06:18.885Z,31.24
2023-04-06T07:07:18.870Z,32.38
2023-04-06T07:08:19.320Z,32.23
2023-04-06T07:09:18.883Z,33.39
2023-04-06T07:10:18.858Z,33.12
2023-04-06T07:11:18.862Z,33.22
2023-04-06T07:12:18.870Z,32.94
2023-04-06T07:13:18.870Z,34.47
2023-04-06T07:14:18.850Z,31.56
2023-04-06T07:15:18.837Z,32.80
2023-04-06T07:16:18.988Z,33.54
2023-04-06T07:17:18.837Z,35.27
2023-04-06T07:18:18.822Z,32.88
2023-04-06T07:19:18.841Z,32.68
2023-04-06T07:20:18.925Z,33.72
2023-04-06T07:21:18.817Z,34.33
2023-04-06T07:22:18.825Z,33.05
2023-04-06T07:23:18.834Z,35.30
2023-04-06T07:24:18.793Z,34.47
2023-04-06T07:25:18.826Z,32.35
2023-04-06T07:26:18.792Z,33.97
2023-04-06T07:27:18.786Z,34.37
2023-04-06T07:28:18.776Z,35.17
2023-04-06T07:29:18.785Z,35.61
2023-04-06T07:30:19.412Z,34.45
2023-04-06T07:31:18.815Z,33.99
2023-04-06T07:32:18.925Z,32.43
2023-04-06T07:33:18.754Z,34.63
2023-04-06T07:34:18.747Z,34.75
2023-04-06T07:35:18.760Z,32.73
2023-04-06T07:36:18.744Z,34.38
2023-04-06T07:37:18.737Z,33.51
2023-04-06T07:38:18.731Z,34.60
2023-04-06T07:39:18.714Z,31.95
2023-04-06T07:40:18.774Z,36.58
2023-04-06T07:41:18.749Z,36.01
2023-04-06T07:42:18.710Z,32.51
2023-04-06T07:43:18.709Z,32.97
2023-04-06T07:44:18.693Z,33.99
2023-04-06T07:45:18.682Z,36.04
2023-04-06T07:46:18.691Z,35.25
2023-04-06T07:47:18.682Z,32.93
2023-04-06T07:48:18.673Z,34.60
2023-04-06T07:49:18.651Z,34.22
2023-04-06T07:50:18.652Z,35.73
2023-04-06T07:51:18.695Z,35.84
2023-04-06T07:52:18.621Z,33.97
2023-04-06T07:53:18.627Z,36.57
2023-04-06T07:54:18.604Z,35.20
2023-04-06T07:55:18.594Z,32.47
2023-04-06T07:56:18.588Z,34.65
2023-04-06T07:57:18.611Z,33.56
2023-04-06T07:58:18.589Z,34.61
2023-04-06T07:59:18.602Z,35.51
2023-04-06T08:00:18.572Z,36.19
2023-04-06T08:01:18.566Z,34.65
2023-04-06T08:02:18.567Z,35.17
2023-04-06T08:03:18.731Z,35.72
2023-04-06T08:04:18.571Z,34.46
2023-04-06T08:05:18.548Z,36.78
2023-04-06T08:06:18.537Z,35.10
2023-04-06T08:07:18.544Z,34.22
2023-04-06T08:08:18.544Z,36.48
2023-04-06T08:09:18.527Z,35.25
2023-04-06T08:10:18.529Z,35.11
2023-04-06T08:11:18.525Z,33.32
2023-04-06T08:12:18.515Z,36.52
2023-04-06T08:13:18.535Z,36.86
2023-04-06T08:14:18.501Z,34.71
2023-04-06T08:15:18.540Z,36.08
2023-04-06T08:16:18.607Z,35.25
2023-04-06T08:17:18.491Z,36.53
2023-04-06T08:18:18.497Z,37.49
2023-04-06T08:19:18.491Z,35.70
2023-04-06T08:20:18.485Z,35.13
2023-04-06T08:21:18.482Z,35.26
2023-04-06T08:22:18.470Z,34.35
2023-04-06T08:23:18.472Z,37.97
2023-04-06T08:24:18.513Z,36.02
2023-04-06T08:25:18.593Z,35.25
2023-04-06T08:26:18.660Z,36.07
2023-04-06T08:27:18.719Z,36.86
2023-04-06T08:28:18.762Z,34.15
2023-04-06T08:29:18.808Z,34.46
2023-04-06T08:30:18.822Z,36.82
2023-04-06T08:31:18.946Z,36.63
2023-04-06T08:32:18.953Z,36.72
2023-04-06T08:33:18.932Z,35.31
2023-04-06T08:34:18.958Z,35.95
2023-04-06T08:35:19.061Z,35.70
2023-04-06T08:36:18.999Z,37.60
2023-04-06T08:37:19.044Z,36.23
2023-04-06T08:38:19.060Z,38.49
2023-04-06T08:39:19.107Z,37.42
2023-04-06T08:40:19.110Z,37.06
2023-04-06T08:41:19.193Z,36.09
2023-04-06T08:42:19.213Z,35.99
2023-04-06T08:43:19.254Z,36.67
2023-04-06T08:44:19.306Z,35.60
2023-04-06T08:45:19.420Z,35.52
2023-04-06T08:46:19.459Z,37.77
2023-04-06T08:47:20.213Z,36.29
2023-04-06T08:48:19.430Z,38.47
2023-04-06T08:49:19.849Z,39.19
2023-04-06T08:50:19.425Z,38.66
2023-04-06T08:51:19.418Z,37.97
2023-04-06T08:52:19.426Z,36.94
2023-04-06T08:53:19.404Z,39.01
2023-04-06T08:54:19.411Z,36.01
2023-04-06T08:55:19.387Z,35.62
2023-04-06T08:56:19.390Z,38.29
2023-04-06T08:57:19.373Z,38.69
2023-04-06T08:58:31.205Z,36.39
2023-04-06T08:59:19.405Z,36.76
2023-04-06T09:00:19.367Z,37.54
2023-04-06T09:01:19.391Z,38.82
2023-04-06T09:02:19.434Z,37.87
2023-04-06T09:03:19.561Z,38.11
2023-04-06T09:04:20.231Z,37.11
2023-04-06T09:05:19.339Z,40.48
2023-04-06T09:06:19.322Z,38.20
2023-04-06T09:07:19.326Z,36.34
2023-04-06T09:08:19.859Z,37.27
2023-04-06T09:09:19.916Z,39.18
2023-04-06T09:10:19.496Z,38.85
2023-04-06T09:11:19.557Z,38.30
2023-04-06T09:12:19.602Z,40.01
2023-04-06T09:13:19.673Z,39.63
2023-04-06T09:14:19.716Z,37.35
2023-04-06T09:15:20.793Z,38.24
2023-04-06T09:16:19.810Z,39.30
2023-04-06T09:17:19.791Z,41.67
2023-04-06T09:18:19.760Z,40.55
2023-04-06T09:19:19.738Z,40.02
2023-04-06T09:20:19.762Z,40.52
2023-04-06T09:21:20.652Z,38.71
2023-04-06T09:22:19.725Z,38.92
2023-04-06T09:23:19.825Z,39.77
2023-04-06T09:24:19.702Z,39.72
2023-04-06T09:25:19.706Z,40.27
2023-04-06T09:26:19.696Z,41.82
2023-04-06T09:27:19.689Z,41.90
2023-04-06T09:28:19.680Z,42.16
2023-04-06T09:29:19.669Z,39.87
2023-04-06T09:30:19.713Z,40.36
2023-04-06T09:31:19.681Z,42.47
2023-04-06T09:32:19.671Z,40.24
2023-04-06T09:33:19.652Z,38.21
2023-04-06T09:34:19.617Z,41.62
2023-04-06T09:35:19.659Z,41.27
2023-04-06T09:36:19.631Z,41.24
2023-04-06T09:37:19.615Z,41.49
2023-04-06T09:38:19.591Z,42.18
2023-04-06T09:39:19.578Z,41.74
2023-04-06T09:40:19.610Z,39.82
2023-04-06T09:41:19.576Z,39.54
2023-04-06T09:42:19.558Z,38.83
2023-04-06T09:43:19.587Z,40.38
2023-04-06T09:44:19.653Z,38.79
2023-04-06T09:45:19.689Z,40.25
2023-04-06T09:46:19.826Z,39.13
2023-04-06T09:47:19.951Z,41.12
2023-04-06T09:48:19.937Z,42.04
2023-04-06T09:49:19.921Z,39.77
2023-04-06T09:50:20.276Z,41.49
2023-04-06T09:51:19.999Z,41.34
2023-04-06T09:52:20.047Z,40.86
2023-04-06T09:53:20.087Z,42.36
2023-04-06T09:54:20.135Z,43.81
2023-04-06T09:55:20.196Z,42.94
2023-04-06T09:56:20.241Z,41.78
2023-04-06T09:57:20.343Z,43.01
2023-04-06T09:58:20.404Z,43.75
2023-04-06T09:59:20.405Z,44.03
2023-04-06T10:00:20.420Z,46.12
2023-04-06T10:01:20.507Z,45.23
2023-04-06T10:02:20.553Z,43.07
2023-04-06T10:03:20.793Z,44.40
2023-04-06T10:04:20.628Z,43.70
2023-04-06T10:05:20.698Z,44.98
2023-04-06T10:06:20.721Z,45.21
2023-04-06T10:07:20.764Z,43.97
2023-04-06T10:08:20.815Z,44.39
2023-04-06T10:09:20.860Z,44.67
2023-04-06T10:10:20.912Z,44.79
2023-04-06T10:11:20.973Z,44.51
2023-04-06T10:12:21.013Z,45.03
2023-04-06T10:13:21.056Z,45.88
2023-04-06T10:14:21.104Z,44.03
2023-04-06T10:15:23.086Z,44.70
2023-04-06T10:16:21.206Z,43.71
2023-04-06T10:17:21.252Z,48.17
2023-04-06T10:18:21.132Z,45.52
2023-04-06T10:19:21.130Z,44.75
2023-04-06T10:20:21.128Z,43.94
2023-04-06T10:21:21.985Z,45.68
2023-04-06T10:22:21.108Z,46.18
2023-04-06T10:23:21.103Z,46.96
2023-04-06T10:24:21.072Z,45.19
2023-04-06T10:25:21.060Z,45.92
2023-04-06T10:26:21.054Z,47.06
2023-04-06T10:27:21.056Z,45.04
2023-04-06T10:28:21.039Z,46.57
2023-04-06T10:29:21.039Z,45.22
2023-04-06T10:30:21.020Z,45.61
2023-04-06T10:31:21.082Z,45.44
2023-04-06T10:32:21.163Z,45.82
2023-04-06T10:33:21.197Z,47.12
2023-04-06T10:34:21.192Z,46.59
2023-04-06T10:35:21.238Z,45.85
2023-04-06T10:36:21.327Z,46.06
2023-04-06T10:37:21.349Z,46.07
2023-04-06T10:38:21.360Z,45.24
2023-04-06T10:39:21.396Z,45.95
2023-04-06T10:40:21.442Z,45.39
2023-04-06T10:41:21.488Z,44.67
2023-04-06T10:42:21.521Z,45.74
2023-04-06T10:43:21.583Z,45.34
2023-04-06T10:44:21.606Z,44.86
2023-04-06T10:45:21.644Z,45.03
2023-04-06T10:46:21.712Z,43.72
2023-04-06T10:47:21.736Z,44.91
2023-04-06T10:48:21.747Z,45.08
2023-04-06T10:49:21.776Z,45.57
2023-04-06T10:50:21.811Z,45.43
2023-04-06T10:51:21.833Z,46.13
2023-04-06T10:52:21.862Z,44.91
2023-04-06T10:53:21.933Z,45.44
2023-04-06T10:54:21.919Z,44.23
2023-04-06T10:55:21.949Z,45.18
2023-04-06T10:56:21.963Z,44.99
2023-04-06T10:57:21.984Z,45.30
2023-04-06T10:58:22.013Z,44.89
2023-04-06T10:59:22.027Z,46.89
2023-04-06T11:00:22.045Z,46.62
2023-04-06T11:01:22.156Z,47.64
2023-04-06T11:02:22.089Z,46.85
2023-04-06T11:03:22.105Z,47.27
2023-04-06T11:04:22.227Z,46.17
2023-04-06T11:05:22.155Z,45.79
2023-04-06T11:06:22.174Z,46.87
2023-04-06T11:07:22.197Z,47.05
2023-04-06T11:08:22.221Z,47.92
2023-04-06T11:09:22.425Z,46.52
2023-04-06T11:10:22.302Z,47.34
2023-04-06T11:11:22.296Z,45.02
2023-04-06T11:12:22.320Z,46.31
2023-04-06T11:13:22.350Z,47.24
2023-04-06T11:14:22.383Z,48.27
2023-04-06T11:15:22.399Z,46.12
2023-04-06T11:16:22.488Z,44.94
2023-04-06T11:17:22.435Z,47.17
2023-04-06T11:18:22.464Z,47.15
2023-04-06T11:19:22.487Z,46.92
2023-04-06T11:20:22.502Z,47.56
2023-04-06T11:21:22.530Z,46.47
2023-04-06T11:22:22.566Z,47.23
2023-04-06T11:23:22.594Z,48.00
2023-04-06T11:24:22.690Z,48.20
2023-04-06T11:25:22.687Z,49.49
2023-04-06T11:26:22.707Z,48.16
2023-04-06T11:27:22.726Z,46.55
2023-04-06T11:28:22.733Z,47.76
2023-04-06T11:29:22.763Z,48.05
2023-04-06T11:30:22.806Z,47.14
2023-04-06T11:31:22.826Z,48.44
2023-04-06T11:32:22.863Z,47.34
2023-04-06T11:33:22.868Z,48.60
2023-04-06T11:34:22.892Z,49.56
2023-04-06T11:35:23.419Z,49.41
2023-04-06T11:36:22.968Z,48.60
2023-04-06T11:37:22.967Z,47.92
2023-04-06T11:38:23.005Z,49.60
2023-04-06T11:39:23.029Z,50.39
2023-04-06T11:40:23.031Z,49.42
2023-04-06T11:41:23.077Z,50.23
2023-04-06T11:42:23.082Z,49.26
2023-04-06T11:43:23.135Z,49.61
2023-04-06T11:44:23.144Z,49.27
2023-04-06T11:45:23.167Z,49.78
2023-04-06T11:46:23.247Z,48.57
2023-04-06T11:47:23.259Z,49.43
2023-04-06T11:48:24.601Z,50.08
2023-04-06T11:49:23.282Z,50.27
2023-04-06T11:50:23.218Z,50.37
2023-04-06T11:51:23.211Z,50.45
2023-04-06T11:52:23.227Z,49.04
2023-04-06T11:53:23.185Z,49.56
2023-04-06T11:54:23.172Z,49.70
2023-04-06T11:55:23.159Z,48.48
2023-04-06T11:56:23.147Z,49.34
2023-04-06T11:57:23.191Z,49.30
2023-04-06T11:58:23.107Z,50.19
2023-04-06T11:59:23.152Z,47.50
2023-04-06T12:00:23.087Z,47.97
2023-04-06T12:01:23.066Z,48.70
2023-04-06T12:02:23.281Z,49.62
2023-04-06T12:03:23.163Z,50.30
2023-04-06T12:04:23.026Z,47.27
2023-04-06T12:05:22.998Z,48.12
2023-04-06T12:06:22.995Z,49.66
2023-04-06T12:07:22.979Z,49.66
2023-04-06T12:08:22.972Z,47.08
2023-04-06T12:09:22.950Z,49.02
2023-04-06T12:10:22.976Z,48.02
2023-04-06T12:11:22.943Z,48.00
2023-04-06T12:12:22.919Z,49.11
2023-04-06T12:13:22.953Z,48.24
2023-04-06T12:14:22.908Z,48.71
2023-04-06T12:15:22.900Z,48.81
2023-04-06T12:16:22.993Z,48.04
2023-04-06T12:17:22.937Z,47.92
2023-04-06T12:18:22.887Z,49.18
2023-04-06T12:19:22.856Z,48.61
2023-04-06T12:20:27.256Z,47.09
2023-04-06T12:21:22.834Z,47.43
2023-04-06T12:22:22.822Z,48.26
2023-04-06T12:23:22.820Z,49.21
2023-04-06T12:24:22.818Z,49.51
2023-04-06T12:25:22.801Z,52.12
2023-04-06T12:26:22.795Z,50.25
2023-04-06T12:27:22.768Z,49.86
2023-04-06T12:28:22.748Z,50.73
2023-04-06T12:29:22.790Z,51.01
2023-04-06T12:30:22.767Z,50.58
2023-04-06T12:31:22.786Z,49.79
2023-04-06T12:32:22.720Z,50.15
2023-04-06T12:33:22.829Z,50.73
2023-04-06T12:34:22.680Z,50.02
2023-04-06T12:35:22.682Z,50.99
2023-04-06T12:36:22.754Z,50.21
2023-04-06T12:37:22.644Z,50.23
2023-04-06T12:38:22.630Z,52.45
2023-04-06T12:39:22.622Z,50.98
2023-04-06T12:40:22.615Z,50.40
2023-04-06T12:41:22.600Z,50.82
2023-04-06T12:42:22.598Z,50.22
2023-04-06T12:43:22.592Z,50.58
2023-04-06T12:44:23.683Z,49.53
2023-04-06T12:45:22.608Z,52.79
2023-04-06T12:46:22.602Z,54.68
2023-04-06T12:47:22.596Z,53.07
2023-04-06T12:48:22.544Z,51.14
2023-04-06T12:49:22.537Z,51.02
2023-04-06T12:50:22.533Z,51.48
2023-04-06T12:51:22.523Z,51.46
2023-04-06T12:52:22.530Z,49.63